Terminal Aerodrome Forecast
Issued by NWS Cleveland, OH

Home | Current Version | Previous Version | Graphics & Text | Print | Product List | Glossary On
Versions: 1 2 3 4 5 6 7 8 9 10 11 12 13
467
FTUS41 KCLE 231139
TAFCAK
TAF
KCAK 231139Z 2312/2412 22010KT P6SM VCSH OVC006
      TEMPO 2312/2315 3SM RA BR SCT006 OVC010
     FM231500 22015G22KT 5SM -SHRA BR VCTS OVC015CB
      TEMPO 2315/2319 24012KT 1SM TSRA OVC005CB
     FM232200 24010KT 5SM -SHRA OVC018
     FM240100 25007KT P6SM OVC015=

USA.gov is the U.S. government's official web portal to all federal, state and local government web resources and services.